aviador You're here:

LFOK Decoded Metar

CHALONS in FRANCE
Report Time2018-06-17 23:30:00
UTC Time2018-06-17 23:45:36
Flight Rules vfr VFR
Wind190° at 05 kt
W.Decomp.*RWY 10: 5.0 kt RCW
W.Rank190° ranks 5
Current wind is below 190° avg. (8.5)
Visibility9999 m
Phenomena:N/A
Clouds:N/A
Expected CloudBase > 800 ft AGL from Temp-Dew spread
CeilingNone
Temp12°C (ISA -2)
Dew Point10°C (88% RH)
AAT10.3°C
QNH1022 hPa
Density Alt164 ft
Elevation531 ft
Report Wrong Elevation
Raw Report
LFOK 172330Z AUTO 19005KT CAVOK 12/10 Q1022 NOSIG=

Extra information for LFOK:More info

Metar Taf Metar & Taf Last 4 Metars F.Rules Stats Wind Profile Meteogram Temp Stats Airport Information Weather charts Add Link Nearby VenuesMetar ALERT Operation Metar Decoded Social comments